sensor_id;sensor_type;location;lat;lon;timestamp;P1;durP1;ratioP1;P2;durP2;ratioP2
7531;SDS011;3807;49.030;8.714;2023-11-22T00:01:49;4.03;;;2.33;;
7531;SDS011;3807;49.030;8.714;2023-11-22T00:04:14;4.47;;;2.30;;
7531;SDS011;3807;49.030;8.714;2023-11-22T00:06:39;2.97;;;2.47;;
7531;SDS011;3807;49.030;8.714;2023-11-22T00:09:05;2.97;;;2.57;;
7531;SDS011;3807;49.030;8.714;2023-11-22T00:11:30;5.40;;;2.63;;
7531;SDS011;3807;49.030;8.714;2023-11-22T00:13:55;3.47;;;2.80;;
7531;SDS011;3807;49.030;8.714;2023-11-22T00:16:21;3.93;;;2.30;;
7531;SDS011;3807;49.030;8.714;2023-11-22T00:18:46;4.17;;;2.37;;
7531;SDS011;3807;49.030;8.714;2023-11-22T00:21:12;2.00;;;1.63;;
7531;SDS011;3807;49.030;8.714;2023-11-22T00:23:37;5.27;;;2.47;;
7531;SDS011;3807;49.030;8.714;2023-11-22T00:26:02;3.37;;;2.33;;
7531;SDS011;3807;49.030;8.714;2023-11-22T00:28:30;2.83;;;2.23;;
7531;SDS011;3807;49.030;8.714;2023-11-22T00:30:55;3.03;;;2.10;;
7531;SDS011;3807;49.030;8.714;2023-11-22T00:33:21;3.33;;;2.40;;
7531;SDS011;3807;49.030;8.714;2023-11-22T00:35:46;2.53;;;2.30;;
7531;SDS011;3807;49.030;8.714;2023-11-22T00:38:12;2.80;;;2.50;;
7531;SDS011;3807;49.030;8.714;2023-11-22T00:40:37;4.43;;;2.60;;
7531;SDS011;3807;49.030;8.714;2023-11-22T00:43:02;1.87;;;1.70;;
7531;SDS011;3807;49.030;8.714;2023-11-22T00:45:28;2.70;;;2.23;;
7531;SDS011;3807;49.030;8.714;2023-11-22T00:47:54;3.00;;;2.30;;
7531;SDS011;3807;49.030;8.714;2023-11-22T00:50:20;3.60;;;2.73;;
7531;SDS011;3807;49.030;8.714;2023-11-22T00:52:48;2.57;;;2.37;;
7531;SDS011;3807;49.030;8.714;2023-11-22T00:55:14;6.63;;;2.60;;
7531;SDS011;3807;49.030;8.714;2023-11-22T00:57:39;2.17;;;1.97;;
7531;SDS011;3807;49.030;8.714;2023-11-22T01:00:05;2.57;;;2.37;;
7531;SDS011;3807;49.030;8.714;2023-11-22T01:02:34;3.80;;;1.83;;
7531;SDS011;3807;49.030;8.714;2023-11-22T01:05:03;3.10;;;2.50;;
7531;SDS011;3807;49.030;8.714;2023-11-22T01:07:34;3.00;;;2.33;;
7531;SDS011;3807;49.030;8.714;2023-11-22T01:10:00;2.20;;;1.97;;
7531;SDS011;3807;49.030;8.714;2023-11-22T01:12:26;3.47;;;2.20;;
7531;SDS011;3807;49.030;8.714;2023-11-22T01:14:51;2.37;;;1.87;;
7531;SDS011;3807;49.030;8.714;2023-11-22T01:17:17;2.80;;;2.40;;
7531;SDS011;3807;49.030;8.714;2023-11-22T01:19:42;2.47;;;2.07;;
7531;SDS011;3807;49.030;8.714;2023-11-22T01:22:07;2.50;;;2.30;;
7531;SDS011;3807;49.030;8.714;2023-11-22T01:24:33;3.00;;;2.70;;
7531;SDS011;3807;49.030;8.714;2023-11-22T01:26:58;2.53;;;2.10;;
7531;SDS011;3807;49.030;8.714;2023-11-22T01:29:24;2.60;;;2.40;;
7531;SDS011;3807;49.030;8.714;2023-11-22T01:31:49;2.27;;;2.07;;
7531;SDS011;3807;49.030;8.714;2023-11-22T01:34:14;2.40;;;2.20;;
7531;SDS011;3807;49.030;8.714;2023-11-22T01:36:42;4.30;;;2.10;;
7531;SDS011;3807;49.030;8.714;2023-11-22T01:39:14;4.23;;;2.77;;
7531;SDS011;3807;49.030;8.714;2023-11-22T01:41:39;3.70;;;2.67;;
7531;SDS011;3807;49.030;8.714;2023-11-22T01:44:06;3.47;;;2.40;;
7531;SDS011;3807;49.030;8.714;2023-11-22T01:46:32;4.43;;;2.63;;
7531;SDS011;3807;49.030;8.714;2023-11-22T01:48:58;3.63;;;2.43;;
7531;SDS011;3807;49.030;8.714;2023-11-22T01:51:25;3.10;;;2.37;;
7531;SDS011;3807;49.030;8.714;2023-11-22T01:53:51;3.37;;;2.33;;
7531;SDS011;3807;49.030;8.714;2023-11-22T01:56:19;3.93;;;2.57;;
7531;SDS011;3807;49.030;8.714;2023-11-22T01:58:46;2.23;;;1.90;;
7531;SDS011;3807;49.030;8.714;2023-11-22T02:01:12;4.57;;;2.13;;
7531;SDS011;3807;49.030;8.714;2023-11-22T02:03:37;2.77;;;2.37;;
7531;SDS011;3807;49.030;8.714;2023-11-22T02:06:03;3.20;;;2.13;;
7531;SDS011;3807;49.030;8.714;2023-11-22T02:08:30;2.43;;;2.03;;
7531;SDS011;3807;49.030;8.714;2023-11-22T02:10:59;2.90;;;2.40;;
7531;SDS011;3807;49.030;8.714;2023-11-22T02:13:25;2.33;;;2.13;;
7531;SDS011;3807;49.030;8.714;2023-11-22T02:15:51;2.23;;;2.03;;
7531;SDS011;3807;49.030;8.714;2023-11-22T02:18:20;2.57;;;2.10;;
7531;SDS011;3807;49.030;8.714;2023-11-22T02:20:46;4.27;;;2.43;;
7531;SDS011;3807;49.030;8.714;2023-11-22T02:23:12;2.63;;;2.17;;
7531;SDS011;3807;49.030;8.714;2023-11-22T02:25:37;2.50;;;2.30;;
7531;SDS011;3807;49.030;8.714;2023-11-22T02:28:03;4.73;;;2.40;;
7531;SDS011;3807;49.030;8.714;2023-11-22T02:30:29;2.50;;;2.30;;
7531;SDS011;3807;49.030;8.714;2023-11-22T02:32:54;2.60;;;2.27;;
7531;SDS011;3807;49.030;8.714;2023-11-22T02:35:19;3.03;;;2.20;;
7531;SDS011;3807;49.030;8.714;2023-11-22T02:37:45;4.53;;;2.47;;
7531;SDS011;3807;49.030;8.714;2023-11-22T02:40:21;3.13;;;2.47;;
7531;SDS011;3807;49.030;8.714;2023-11-22T02:42:51;2.87;;;2.03;;
7531;SDS011;3807;49.030;8.714;2023-11-22T02:45:19;3.17;;;2.47;;
7531;SDS011;3807;49.030;8.714;2023-11-22T02:47:48;3.70;;;2.53;;
7531;SDS011;3807;49.030;8.714;2023-11-22T02:50:14;3.40;;;2.30;;
7531;SDS011;3807;49.030;8.714;2023-11-22T02:52:43;2.63;;;2.40;;
7531;SDS011;3807;49.030;8.714;2023-11-22T02:55:08;3.03;;;2.40;;
7531;SDS011;3807;49.030;8.714;2023-11-22T02:57:34;4.90;;;3.70;;
7531;SDS011;3807;49.030;8.714;2023-11-22T03:00:05;4.53;;;2.50;;
7531;SDS011;3807;49.030;8.714;2023-11-22T03:02:32;3.37;;;2.73;;
7531;SDS011;3807;49.030;8.714;2023-11-22T03:04:57;3.40;;;2.50;;
7531;SDS011;3807;49.030;8.714;2023-11-22T03:07:23;2.87;;;2.40;;
7531;SDS011;3807;49.030;8.714;2023-11-22T03:09:50;3.07;;;2.50;;
7531;SDS011;3807;49.030;8.714;2023-11-22T03:12:16;2.47;;;2.17;;
7531;SDS011;3807;49.030;8.714;2023-11-22T03:14:41;2.53;;;2.23;;
7531;SDS011;3807;49.030;8.714;2023-11-22T03:17:07;3.07;;;2.10;;
7531;SDS011;3807;49.030;8.714;2023-11-22T03:19:33;2.73;;;2.03;;
7531;SDS011;3807;49.030;8.714;2023-11-22T03:21:59;2.23;;;2.03;;
7531;SDS011;3807;49.030;8.714;2023-11-22T03:24:25;2.43;;;2.03;;
7531;SDS011;3807;49.030;8.714;2023-11-22T03:26:50;4.20;;;2.57;;
7531;SDS011;3807;49.030;8.714;2023-11-22T03:29:17;2.87;;;2.30;;
7531;SDS011;3807;49.030;8.714;2023-11-22T03:31:43;3.47;;;2.17;;
7531;SDS011;3807;49.030;8.714;2023-11-22T03:34:09;3.13;;;2.00;;
7531;SDS011;3807;49.030;8.714;2023-11-22T03:36:34;2.67;;;2.27;;
7531;SDS011;3807;49.030;8.714;2023-11-22T03:38:59;2.50;;;2.20;;
7531;SDS011;3807;49.030;8.714;2023-11-22T03:41:25;2.37;;;2.13;;
7531;SDS011;3807;49.030;8.714;2023-11-22T03:43:50;5.43;;;2.50;;
7531;SDS011;3807;49.030;8.714;2023-11-22T03:46:15;2.57;;;2.37;;
7531;SDS011;3807;49.030;8.714;2023-11-22T03:48:40;3.37;;;2.37;;
7531;SDS011;3807;49.030;8.714;2023-11-22T03:51:06;2.53;;;2.10;;
7531;SDS011;3807;49.030;8.714;2023-11-22T03:53:31;2.10;;;1.90;;
7531;SDS011;3807;49.030;8.714;2023-11-22T03:55:57;3.37;;;2.20;;
7531;SDS011;3807;49.030;8.714;2023-11-22T03:58:22;2.60;;;2.33;;
7531;SDS011;3807;49.030;8.714;2023-11-22T04:00:48;3.20;;;2.13;;
7531;SDS011;3807;49.030;8.714;2023-11-22T04:03:13;4.80;;;2.40;;
7531;SDS011;3807;49.030;8.714;2023-11-22T04:05:39;2.90;;;2.40;;
7531;SDS011;3807;49.030;8.714;2023-11-22T04:08:04;4.00;;;2.60;;
7531;SDS011;3807;49.030;8.714;2023-11-22T04:10:29;2.30;;;2.03;;
7531;SDS011;3807;49.030;8.714;2023-11-22T04:12:55;2.67;;;2.10;;
7531;SDS011;3807;49.030;8.714;2023-11-22T04:15:21;3.67;;;2.73;;
7531;SDS011;3807;49.030;8.714;2023-11-22T04:17:47;4.93;;;2.57;;
7531;SDS011;3807;49.030;8.714;2023-11-22T04:20:12;4.70;;;2.47;;
7531;SDS011;3807;49.030;8.714;2023-11-22T04:22:40;2.40;;;2.20;;
7531;SDS011;3807;49.030;8.714;2023-11-22T04:25:06;6.43;;;2.50;;
7531;SDS011;3807;49.030;8.714;2023-11-22T04:27:33;2.80;;;2.20;;
7531;SDS011;3807;49.030;8.714;2023-11-22T04:29:59;3.70;;;3.17;;
7531;SDS011;3807;49.030;8.714;2023-11-22T04:32:25;4.20;;;2.43;;
7531;SDS011;3807;49.030;8.714;2023-11-22T04:34:50;2.93;;;2.60;;
7531;SDS011;3807;49.030;8.714;2023-11-22T04:37:15;2.47;;;2.20;;
7531;SDS011;3807;49.030;8.714;2023-11-22T04:39:41;2.83;;;2.30;;
7531;SDS011;3807;49.030;8.714;2023-11-22T04:42:06;3.80;;;2.33;;
7531;SDS011;3807;49.030;8.714;2023-11-22T04:44:31;3.70;;;2.30;;
7531;SDS011;3807;49.030;8.714;2023-11-22T04:46:57;6.10;;;1.97;;
7531;SDS011;3807;49.030;8.714;2023-11-22T04:49:24;2.63;;;2.30;;
7531;SDS011;3807;49.030;8.714;2023-11-22T04:51:50;3.27;;;2.27;;
7531;SDS011;3807;49.030;8.714;2023-11-22T04:54:15;3.50;;;2.30;;
7531;SDS011;3807;49.030;8.714;2023-11-22T04:56:41;3.57;;;2.70;;
7531;SDS011;3807;49.030;8.714;2023-11-22T04:59:06;4.23;;;2.30;;
7531;SDS011;3807;49.030;8.714;2023-11-22T05:01:32;3.23;;;2.20;;
7531;SDS011;3807;49.030;8.714;2023-11-22T05:03:58;3.33;;;2.97;;
7531;SDS011;3807;49.030;8.714;2023-11-22T05:06:24;4.33;;;3.33;;
7531;SDS011;3807;49.030;8.714;2023-11-22T05:08:49;8.37;;;3.67;;
7531;SDS011;3807;49.030;8.714;2023-11-22T05:11:15;5.90;;;3.93;;
7531;SDS011;3807;49.030;8.714;2023-11-22T05:13:41;4.07;;;2.77;;
7531;SDS011;3807;49.030;8.714;2023-11-22T05:16:08;7.23;;;3.33;;
7531;SDS011;3807;49.030;8.714;2023-11-22T05:18:34;3.67;;;2.63;;
7531;SDS011;3807;49.030;8.714;2023-11-22T05:21:00;4.30;;;2.73;;
7531;SDS011;3807;49.030;8.714;2023-11-22T05:23:28;3.47;;;2.70;;
7531;SDS011;3807;49.030;8.714;2023-11-22T05:25:53;3.60;;;3.20;;
7531;SDS011;3807;49.030;8.714;2023-11-22T05:28:18;2.67;;;2.23;;
7531;SDS011;3807;49.030;8.714;2023-11-22T05:30:44;4.90;;;2.70;;
7531;SDS011;3807;49.030;8.714;2023-11-22T05:33:09;3.40;;;2.90;;
7531;SDS011;3807;49.030;8.714;2023-11-22T05:35:35;3.17;;;2.60;;
7531;SDS011;3807;49.030;8.714;2023-11-22T05:38:00;4.67;;;3.10;;
7531;SDS011;3807;49.030;8.714;2023-11-22T05:40:25;2.97;;;2.67;;
7531;SDS011;3807;49.030;8.714;2023-11-22T05:42:51;4.00;;;2.60;;
7531;SDS011;3807;49.030;8.714;2023-11-22T05:45:16;5.03;;;2.40;;
7531;SDS011;3807;49.030;8.714;2023-11-22T05:47:41;2.20;;;1.60;;
7531;SDS011;3807;49.030;8.714;2023-11-22T05:50:07;3.70;;;2.50;;
7531;SDS011;3807;49.030;8.714;2023-11-22T05:52:33;3.70;;;2.83;;
7531;SDS011;3807;49.030;8.714;2023-11-22T05:54:58;3.10;;;2.30;;
7531;SDS011;3807;49.030;8.714;2023-11-22T05:57:24;4.93;;;2.93;;
7531;SDS011;3807;49.030;8.714;2023-11-22T05:59:49;2.67;;;2.30;;
7531;SDS011;3807;49.030;8.714;2023-11-22T06:02:15;2.70;;;2.33;;
7531;SDS011;3807;49.030;8.714;2023-11-22T06:04:40;3.90;;;2.40;;
7531;SDS011;3807;49.030;8.714;2023-11-22T06:07:06;3.43;;;2.70;;
7531;SDS011;3807;49.030;8.714;2023-11-22T06:09:31;4.53;;;3.47;;
7531;SDS011;3807;49.030;8.714;2023-11-22T06:11:56;5.17;;;3.90;;
7531;SDS011;3807;49.030;8.714;2023-11-22T06:14:22;3.50;;;2.67;;
7531;SDS011;3807;49.030;8.714;2023-11-22T06:16:47;3.80;;;2.63;;
7531;SDS011;3807;49.030;8.714;2023-11-22T06:19:12;3.63;;;2.67;;
7531;SDS011;3807;49.030;8.714;2023-11-22T06:21:38;2.60;;;2.07;;
7531;SDS011;3807;49.030;8.714;2023-11-22T06:24:04;2.70;;;2.30;;
7531;SDS011;3807;49.030;8.714;2023-11-22T06:26:33;3.57;;;2.67;;
7531;SDS011;3807;49.030;8.714;2023-11-22T06:28:59;3.90;;;2.80;;
7531;SDS011;3807;49.030;8.714;2023-11-22T06:31:25;2.77;;;2.13;;
7531;SDS011;3807;49.030;8.714;2023-11-22T06:33:50;2.83;;;2.40;;
7531;SDS011;3807;49.030;8.714;2023-11-22T06:36:17;3.90;;;2.43;;
7531;SDS011;3807;49.030;8.714;2023-11-22T06:38:43;2.07;;;1.87;;
7531;SDS011;3807;49.030;8.714;2023-11-22T06:41:08;2.93;;;1.77;;
7531;SDS011;3807;49.030;8.714;2023-11-22T06:43:34;2.97;;;2.50;;
7531;SDS011;3807;49.030;8.714;2023-11-22T06:45:59;5.23;;;3.47;;
7531;SDS011;3807;49.030;8.714;2023-11-22T06:48:26;3.60;;;2.73;;
7531;SDS011;3807;49.030;8.714;2023-11-22T06:50:51;3.50;;;2.70;;
7531;SDS011;3807;49.030;8.714;2023-11-22T06:53:16;5.33;;;2.90;;
7531;SDS011;3807;49.030;8.714;2023-11-22T06:55:44;3.83;;;2.60;;
7531;SDS011;3807;49.030;8.714;2023-11-22T06:58:10;3.73;;;2.53;;
7531;SDS011;3807;49.030;8.714;2023-11-22T07:00:36;3.60;;;2.53;;
7531;SDS011;3807;49.030;8.714;2023-11-22T07:03:01;3.43;;;2.10;;
7531;SDS011;3807;49.030;8.714;2023-11-22T07:05:26;3.00;;;2.27;;
7531;SDS011;3807;49.030;8.714;2023-11-22T07:07:52;2.93;;;2.30;;
7531;SDS011;3807;49.030;8.714;2023-11-22T07:10:19;3.43;;;2.30;;
7531;SDS011;3807;49.030;8.714;2023-11-22T07:12:45;2.20;;;2.00;;
7531;SDS011;3807;49.030;8.714;2023-11-22T07:15:12;2.53;;;2.20;;
7531;SDS011;3807;49.030;8.714;2023-11-22T07:17:38;3.30;;;2.33;;
7531;SDS011;3807;49.030;8.714;2023-11-22T07:20:04;2.70;;;2.27;;
7531;SDS011;3807;49.030;8.714;2023-11-22T07:22:35;4.23;;;2.67;;
7531;SDS011;3807;49.030;8.714;2023-11-22T07:25:01;4.13;;;2.93;;
7531;SDS011;3807;49.030;8.714;2023-11-22T07:27:27;3.67;;;2.70;;
7531;SDS011;3807;49.030;8.714;2023-11-22T07:29:52;3.97;;;2.70;;
7531;SDS011;3807;49.030;8.714;2023-11-22T07:32:17;3.77;;;2.53;;
7531;SDS011;3807;49.030;8.714;2023-11-22T07:34:45;2.90;;;2.33;;
7531;SDS011;3807;49.030;8.714;2023-11-22T07:37:10;7.17;;;3.50;;
7531;SDS011;3807;49.030;8.714;2023-11-22T07:39:37;4.10;;;3.13;;
7531;SDS011;3807;49.030;8.714;2023-11-22T07:42:03;5.10;;;2.87;;
7531;SDS011;3807;49.030;8.714;2023-11-22T07:44:32;4.10;;;2.53;;
7531;SDS011;3807;49.030;8.714;2023-11-22T07:46:58;5.90;;;2.50;;
7531;SDS011;3807;49.030;8.714;2023-11-22T07:49:25;6.03;;;2.70;;
7531;SDS011;3807;49.030;8.714;2023-11-22T07:51:50;3.27;;;2.83;;
7531;SDS011;3807;49.030;8.714;2023-11-22T07:54:19;3.90;;;2.90;;
7531;SDS011;3807;49.030;8.714;2023-11-22T07:56:47;5.13;;;3.13;;
7531;SDS011;3807;49.030;8.714;2023-11-22T07:59:14;3.77;;;2.43;;
7531;SDS011;3807;49.030;8.714;2023-11-22T08:01:42;4.17;;;2.90;;
7531;SDS011;3807;49.030;8.714;2023-11-22T08:04:08;3.63;;;2.73;;
7531;SDS011;3807;49.030;8.714;2023-11-22T08:06:34;3.63;;;2.90;;
7531;SDS011;3807;49.030;8.714;2023-11-22T08:09:00;2.87;;;2.43;;
7531;SDS011;3807;49.030;8.714;2023-11-22T08:11:26;3.83;;;2.60;;
7531;SDS011;3807;49.030;8.714;2023-11-22T08:13:52;2.87;;;2.53;;
7531;SDS011;3807;49.030;8.714;2023-11-22T08:16:20;4.13;;;2.67;;
7531;SDS011;3807;49.030;8.714;2023-11-22T08:18:45;3.40;;;2.87;;
7531;SDS011;3807;49.030;8.714;2023-11-22T08:21:10;3.27;;;2.70;;
7531;SDS011;3807;49.030;8.714;2023-11-22T08:23:36;4.03;;;2.40;;
7531;SDS011;3807;49.030;8.714;2023-11-22T08:26:02;5.20;;;3.37;;
7531;SDS011;3807;49.030;8.714;2023-11-22T08:28:27;5.10;;;2.90;;
7531;SDS011;3807;49.030;8.714;2023-11-22T08:30:54;4.83;;;2.60;;
7531;SDS011;3807;49.030;8.714;2023-11-22T08:33:19;6.60;;;3.40;;
7531;SDS011;3807;49.030;8.714;2023-11-22T08:35:45;5.27;;;2.73;;
7531;SDS011;3807;49.030;8.714;2023-11-22T08:38:15;5.63;;;2.47;;
7531;SDS011;3807;49.030;8.714;2023-11-22T08:40:44;2.63;;;1.80;;
7531;SDS011;3807;49.030;8.714;2023-11-22T08:43:09;3.87;;;3.03;;
7531;SDS011;3807;49.030;8.714;2023-11-22T08:45:35;3.87;;;2.97;;
7531;SDS011;3807;49.030;8.714;2023-11-22T08:48:00;4.13;;;3.27;;
7531;SDS011;3807;49.030;8.714;2023-11-22T08:50:25;6.73;;;3.80;;
7531;SDS011;3807;49.030;8.714;2023-11-22T08:52:51;4.03;;;2.90;;
7531;SDS011;3807;49.030;8.714;2023-11-22T08:55:18;6.90;;;3.27;;
7531;SDS011;3807;49.030;8.714;2023-11-22T08:57:47;4.30;;;3.23;;
7531;SDS011;3807;49.030;8.714;2023-11-22T09:00:13;4.77;;;3.37;;
7531;SDS011;3807;49.030;8.714;2023-11-22T09:02:39;3.97;;;3.10;;
7531;SDS011;3807;49.030;8.714;2023-11-22T09:05:05;6.27;;;3.40;;
7531;SDS011;3807;49.030;8.714;2023-11-22T09:07:33;5.30;;;3.57;;
7531;SDS011;3807;49.030;8.714;2023-11-22T09:10:03;3.27;;;2.83;;
7531;SDS011;3807;49.030;8.714;2023-11-22T09:12:35;5.03;;;3.30;;
7531;SDS011;3807;49.030;8.714;2023-11-22T09:15:04;4.37;;;2.87;;
7531;SDS011;3807;49.030;8.714;2023-11-22T09:17:34;5.60;;;3.50;;
7531;SDS011;3807;49.030;8.714;2023-11-22T09:20:00;5.73;;;3.20;;
7531;SDS011;3807;49.030;8.714;2023-11-22T09:22:27;5.90;;;3.80;;
7531;SDS011;3807;49.030;8.714;2023-11-22T09:24:52;4.30;;;2.80;;
7531;SDS011;3807;49.030;8.714;2023-11-22T09:27:17;5.57;;;2.80;;
7531;SDS011;3807;49.030;8.714;2023-11-22T09:29:45;4.23;;;2.70;;
7531;SDS011;3807;49.030;8.714;2023-11-22T09:32:10;4.77;;;3.43;;
7531;SDS011;3807;49.030;8.714;2023-11-22T09:34:38;3.50;;;2.50;;
7531;SDS011;3807;49.030;8.714;2023-11-22T09:37:03;6.23;;;3.40;;
7531;SDS011;3807;49.030;8.714;2023-11-22T09:39:28;5.20;;;3.00;;
7531;SDS011;3807;49.030;8.714;2023-11-22T09:41:54;7.57;;;3.87;;
7531;SDS011;3807;49.030;8.714;2023-11-22T09:44:20;5.10;;;3.67;;
7531;SDS011;3807;49.030;8.714;2023-11-22T09:46:47;4.83;;;3.17;;
7531;SDS011;3807;49.030;8.714;2023-11-22T09:49:14;4.43;;;3.47;;
7531;SDS011;3807;49.030;8.714;2023-11-22T09:51:47;4.63;;;3.33;;
7531;SDS011;3807;49.030;8.714;2023-11-22T09:54:13;5.00;;;3.50;;
7531;SDS011;3807;49.030;8.714;2023-11-22T09:56:41;5.30;;;3.53;;
7531;SDS011;3807;49.030;8.714;2023-11-22T09:59:15;8.03;;;3.33;;
7531;SDS011;3807;49.030;8.714;2023-11-22T10:01:43;4.37;;;3.30;;
7531;SDS011;3807;49.030;8.714;2023-11-22T10:04:08;4.90;;;3.40;;
7531;SDS011;3807;49.030;8.714;2023-11-22T10:06:34;9.00;;;3.50;;
7531;SDS011;3807;49.030;8.714;2023-11-22T10:09:04;5.87;;;3.73;;
7531;SDS011;3807;49.030;8.714;2023-11-22T10:11:32;7.57;;;3.10;;
7531;SDS011;3807;49.030;8.714;2023-11-22T10:13:58;5.27;;;3.83;;
7531;SDS011;3807;49.030;8.714;2023-11-22T10:16:24;5.13;;;3.57;;
7531;SDS011;3807;49.030;8.714;2023-11-22T10:18:49;6.17;;;3.10;;
7531;SDS011;3807;49.030;8.714;2023-11-22T10:21:22;9.50;;;3.70;;
7531;SDS011;3807;49.030;8.714;2023-11-22T10:23:51;5.67;;;3.40;;
7531;SDS011;3807;49.030;8.714;2023-11-22T10:26:18;5.57;;;3.67;;
7531;SDS011;3807;49.030;8.714;2023-11-22T10:28:44;5.17;;;3.30;;
7531;SDS011;3807;49.030;8.714;2023-11-22T10:31:09;9.30;;;3.43;;
7531;SDS011;3807;49.030;8.714;2023-11-22T10:33:39;5.23;;;3.70;;
7531;SDS011;3807;49.030;8.714;2023-11-22T10:36:05;4.90;;;3.50;;
7531;SDS011;3807;49.030;8.714;2023-11-22T10:38:33;5.57;;;3.77;;
7531;SDS011;3807;49.030;8.714;2023-11-22T10:40:58;5.93;;;4.30;;
7531;SDS011;3807;49.030;8.714;2023-11-22T10:43:26;5.77;;;3.73;;
7531;SDS011;3807;49.030;8.714;2023-11-22T10:45:57;6.33;;;4.13;;
7531;SDS011;3807;49.030;8.714;2023-11-22T10:48:24;4.57;;;3.40;;
7531;SDS011;3807;49.030;8.714;2023-11-22T10:50:50;6.40;;;4.33;;
7531;SDS011;3807;49.030;8.714;2023-11-22T10:53:25;6.07;;;3.53;;
7531;SDS011;3807;49.030;8.714;2023-11-22T10:56:02;5.53;;;3.77;;
7531;SDS011;3807;49.030;8.714;2023-11-22T10:58:28;7.37;;;3.70;;
7531;SDS011;3807;49.030;8.714;2023-11-22T11:00:57;5.60;;;4.03;;
7531;SDS011;3807;49.030;8.714;2023-11-22T11:03:23;7.97;;;4.40;;
7531;SDS011;3807;49.030;8.714;2023-11-22T11:05:58;5.23;;;3.83;;
7531;SDS011;3807;49.030;8.714;2023-11-22T11:08:29;8.43;;;3.97;;
7531;SDS011;3807;49.030;8.714;2023-11-22T11:10:55;7.83;;;3.77;;
7531;SDS011;3807;49.030;8.714;2023-11-22T11:13:23;5.03;;;3.67;;
7531;SDS011;3807;49.030;8.714;2023-11-22T11:15:48;6.57;;;4.60;;
7531;SDS011;3807;49.030;8.714;2023-11-22T11:18:15;6.20;;;3.70;;
7531;SDS011;3807;49.030;8.714;2023-11-22T11:21:00;7.87;;;4.43;;
7531;SDS011;3807;49.030;8.714;2023-11-22T11:23:33;5.80;;;4.17;;
7531;SDS011;3807;49.030;8.714;2023-11-22T11:25:59;5.80;;;4.00;;
7531;SDS011;3807;49.030;8.714;2023-11-22T11:28:43;7.93;;;3.90;;
7531;SDS011;3807;49.030;8.714;2023-11-22T11:31:09;7.77;;;3.93;;
7531;SDS011;3807;49.030;8.714;2023-11-22T11:33:50;6.43;;;4.23;;
7531;SDS011;3807;49.030;8.714;2023-11-22T11:36:28;5.30;;;4.00;;
7531;SDS011;3807;49.030;8.714;2023-11-22T11:39:02;5.53;;;4.03;;
7531;SDS011;3807;49.030;8.714;2023-11-22T11:41:34;7.47;;;3.90;;
7531;SDS011;3807;49.030;8.714;2023-11-22T11:44:02;5.83;;;4.17;;
7531;SDS011;3807;49.030;8.714;2023-11-22T11:46:29;6.47;;;3.90;;
7531;SDS011;3807;49.030;8.714;2023-11-22T11:48:55;5.83;;;4.43;;
7531;SDS011;3807;49.030;8.714;2023-11-22T11:51:22;6.00;;;4.03;;
7531;SDS011;3807;49.030;8.714;2023-11-22T11:53:49;5.17;;;4.17;;
7531;SDS011;3807;49.030;8.714;2023-11-22T11:56:15;6.50;;;3.53;;
7531;SDS011;3807;49.030;8.714;2023-11-22T11:58:41;5.83;;;3.87;;
7531;SDS011;3807;49.030;8.714;2023-11-22T12:01:08;5.83;;;4.20;;
7531;SDS011;3807;49.030;8.714;2023-11-22T12:03:37;5.07;;;3.63;;
7531;SDS011;3807;49.030;8.714;2023-11-22T12:06:04;6.13;;;3.87;;
7531;SDS011;3807;49.030;8.714;2023-11-22T12:08:30;5.63;;;4.10;;
7531;SDS011;3807;49.030;8.714;2023-11-22T12:11:01;7.80;;;5.10;;
7531;SDS011;3807;49.030;8.714;2023-11-22T12:13:27;5.83;;;4.27;;
7531;SDS011;3807;49.030;8.714;2023-11-22T12:15:53;5.30;;;3.50;;
7531;SDS011;3807;49.030;8.714;2023-11-22T12:18:19;7.37;;;4.27;;
7531;SDS011;3807;49.030;8.714;2023-11-22T12:20:53;7.73;;;4.33;;
7531;SDS011;3807;49.030;8.714;2023-11-22T12:23:22;5.83;;;3.93;;
7531;SDS011;3807;49.030;8.714;2023-11-22T12:25:52;6.17;;;3.33;;
7531;SDS011;3807;49.030;8.714;2023-11-22T12:28:28;5.67;;;3.37;;
7531;SDS011;3807;49.030;8.714;2023-11-22T12:30:54;5.63;;;3.53;;
7531;SDS011;3807;49.030;8.714;2023-11-22T12:33:20;6.80;;;3.43;;
7531;SDS011;3807;49.030;8.714;2023-11-22T12:35:46;6.17;;;3.47;;
7531;SDS011;3807;49.030;8.714;2023-11-22T12:38:12;5.07;;;3.47;;
7531;SDS011;3807;49.030;8.714;2023-11-22T12:40:37;5.43;;;3.87;;
7531;SDS011;3807;49.030;8.714;2023-11-22T12:43:03;6.27;;;4.43;;
7531;SDS011;3807;49.030;8.714;2023-11-22T12:45:30;5.87;;;3.53;;
7531;SDS011;3807;49.030;8.714;2023-11-22T12:47:57;5.00;;;3.80;;
7531;SDS011;3807;49.030;8.714;2023-11-22T12:53:07;4.17;;;3.40;;
7531;SDS011;3807;49.030;8.714;2023-11-22T12:55:33;5.33;;;3.60;;
7531;SDS011;3807;49.030;8.714;2023-11-22T12:57:58;4.13;;;3.30;;
7531;SDS011;3807;49.030;8.714;2023-11-22T13:00:25;5.37;;;3.40;;
7531;SDS011;3807;49.030;8.714;2023-11-22T13:02:54;6.93;;;3.03;;
7531;SDS011;3807;49.030;8.714;2023-11-22T13:05:20;4.17;;;3.47;;
7531;SDS011;3807;49.030;8.714;2023-11-22T13:07:46;4.40;;;3.23;;
7531;SDS011;3807;49.030;8.714;2023-11-22T13:10:12;5.07;;;3.27;;
7531;SDS011;3807;49.030;8.714;2023-11-22T13:12:41;6.03;;;3.50;;
7531;SDS011;3807;49.030;8.714;2023-11-22T13:15:08;5.67;;;4.03;;
7531;SDS011;3807;49.030;8.714;2023-11-22T13:17:40;5.10;;;3.60;;
7531;SDS011;3807;49.030;8.714;2023-11-22T13:20:08;5.47;;;3.60;;
7531;SDS011;3807;49.030;8.714;2023-11-22T13:22:40;4.47;;;3.63;;
7531;SDS011;3807;49.030;8.714;2023-11-22T13:25:07;6.50;;;4.00;;
7531;SDS011;3807;49.030;8.714;2023-11-22T13:27:38;7.07;;;4.03;;
7531;SDS011;3807;49.030;8.714;2023-11-22T13:30:06;4.70;;;3.23;;
7531;SDS011;3807;49.030;8.714;2023-11-22T13:32:31;5.83;;;3.77;;
7531;SDS011;3807;49.030;8.714;2023-11-22T13:34:57;4.57;;;3.27;;
7531;SDS011;3807;49.030;8.714;2023-11-22T13:37:23;5.50;;;3.60;;
7531;SDS011;3807;49.030;8.714;2023-11-22T13:39:49;4.77;;;3.40;;
7531;SDS011;3807;49.030;8.714;2023-11-22T13:42:14;4.17;;;3.03;;
7531;SDS011;3807;49.030;8.714;2023-11-22T13:44:39;7.27;;;3.80;;
7531;SDS011;3807;49.030;8.714;2023-11-22T13:47:06;4.57;;;3.33;;
7531;SDS011;3807;49.030;8.714;2023-11-22T13:49:33;6.17;;;3.80;;
7531;SDS011;3807;49.030;8.714;2023-11-22T13:51:58;6.27;;;3.70;;
7531;SDS011;3807;49.030;8.714;2023-11-22T13:54:24;4.83;;;3.77;;
7531;SDS011;3807;49.030;8.714;2023-11-22T13:56:49;8.77;;;3.40;;
7531;SDS011;3807;49.030;8.714;2023-11-22T13:59:15;4.83;;;3.40;;
7531;SDS011;3807;49.030;8.714;2023-11-22T14:01:40;5.63;;;4.00;;
7531;SDS011;3807;49.030;8.714;2023-11-22T14:04:05;5.43;;;3.87;;
7531;SDS011;3807;49.030;8.714;2023-11-22T14:06:31;4.57;;;3.37;;
7531;SDS011;3807;49.030;8.714;2023-11-22T14:08:56;3.93;;;3.13;;
7531;SDS011;3807;49.030;8.714;2023-11-22T14:11:22;4.53;;;3.30;;
7531;SDS011;3807;49.030;8.714;2023-11-22T14:13:47;3.77;;;2.80;;
7531;SDS011;3807;49.030;8.714;2023-11-22T14:16:12;4.87;;;3.63;;
7531;SDS011;3807;49.030;8.714;2023-11-22T14:18:40;4.37;;;3.43;;
7531;SDS011;3807;49.030;8.714;2023-11-22T14:21:05;4.77;;;3.40;;
7531;SDS011;3807;49.030;8.714;2023-11-22T14:23:31;5.13;;;3.77;;
7531;SDS011;3807;49.030;8.714;2023-11-22T14:25:56;6.33;;;3.70;;
7531;SDS011;3807;49.030;8.714;2023-11-22T14:28:22;6.77;;;3.60;;
7531;SDS011;3807;49.030;8.714;2023-11-22T14:30:48;9.73;;;4.43;;
7531;SDS011;3807;49.030;8.714;2023-11-22T14:33:19;6.70;;;4.53;;
7531;SDS011;3807;49.030;8.714;2023-11-22T14:35:44;4.43;;;3.40;;
7531;SDS011;3807;49.030;8.714;2023-11-22T14:38:10;4.63;;;3.50;;
7531;SDS011;3807;49.030;8.714;2023-11-22T14:40:35;4.43;;;3.30;;
7531;SDS011;3807;49.030;8.714;2023-11-22T14:43:03;6.73;;;3.27;;
7531;SDS011;3807;49.030;8.714;2023-11-22T14:45:29;3.80;;;3.20;;
7531;SDS011;3807;49.030;8.714;2023-11-22T14:47:55;7.00;;;3.80;;
7531;SDS011;3807;49.030;8.714;2023-11-22T14:50:21;5.97;;;3.70;;
7531;SDS011;3807;49.030;8.714;2023-11-22T14:52:50;4.50;;;3.20;;
7531;SDS011;3807;49.030;8.714;2023-11-22T14:55:16;4.13;;;3.27;;
7531;SDS011;3807;49.030;8.714;2023-11-22T14:57:42;4.53;;;3.17;;
7531;SDS011;3807;49.030;8.714;2023-11-22T15:00:08;5.13;;;3.60;;
7531;SDS011;3807;49.030;8.714;2023-11-22T15:02:39;4.20;;;3.27;;
7531;SDS011;3807;49.030;8.714;2023-11-22T15:05:07;3.97;;;3.00;;
7531;SDS011;3807;49.030;8.714;2023-11-22T15:07:34;5.30;;;3.60;;
7531;SDS011;3807;49.030;8.714;2023-11-22T15:10:01;4.60;;;3.13;;
7531;SDS011;3807;49.030;8.714;2023-11-22T15:12:26;5.07;;;3.77;;
7531;SDS011;3807;49.030;8.714;2023-11-22T15:14:55;4.97;;;3.40;;